Accueil
METAR-TAF:

METAR-TAF

Aéroports :

Aéroport international de Lusaka

Lusaka, Zambie

latitude: 15-19-51S, longitude: 028-27-09E, altitude: 1152 m

Observation

Le bulletin a été fait il y a 5 heures et 14 minutes, à 16:00 UTC
Vent 4 kt de sud-est
Température 25°C
Humidité 24%
Pression 1020 hPa
Visibilité: 9000 m

METAR: FLKK 171600Z 14004KT 9000 NSC 25/03 Q1020

Heure: 23:14 (21:14 UTC)


TAF: absent

Observations et prévisions météorologiques de plus de 4000 aéroports (messages METAR et TAF).

Les stations disponibles sont représentées par des disques jaunes et rouges sur la carte.

Passer la souris dessus pour voir le nom de la station.

Cliquer dessus pour voir les observations et prévisions météorologiques.

Pour changer de carte: cliquez sur les boutons verts avec une croix noire pour zoomer, sur le bouton vert avec un tiret pour effectuer un zoom arrière, ou sur les flèches vertes pour les cartes adjacentes.


METAR-TAF: